createdAt,value
2023-03-20T00:02:22.511Z,9.70
2023-03-20T00:04:50.131Z,9.60
2023-03-20T00:07:17.676Z,9.60
2023-03-20T00:09:45.273Z,9.50
2023-03-20T00:12:19.354Z,9.40
2023-03-20T00:14:46.909Z,9.20
2023-03-20T00:17:21.324Z,9.00
2023-03-20T00:19:49.347Z,8.70
2023-03-20T00:22:16.870Z,8.50
2023-03-20T00:24:44.408Z,8.40
2023-03-20T00:27:15.718Z,8.50
2023-03-20T00:29:44.092Z,8.60
2023-03-20T00:32:15.772Z,8.70
2023-03-20T00:34:43.412Z,8.70
2023-03-20T00:37:12.060Z,8.70
2023-03-20T00:39:41.454Z,8.80
2023-03-20T00:42:21.585Z,8.80
2023-03-20T00:44:59.760Z,8.90
2023-03-20T00:47:28.697Z,8.90
2023-03-20T00:49:56.266Z,8.80
2023-03-20T00:52:24.648Z,8.90
2023-03-20T00:54:52.688Z,8.80
2023-03-20T00:57:27.727Z,8.80
2023-03-20T01:00:07.264Z,8.90
2023-03-20T01:02:35.087Z,8.90
2023-03-20T01:05:04.182Z,9.00
2023-03-20T01:07:31.911Z,8.90
2023-03-20T01:09:59.414Z,8.80
2023-03-20T01:12:27.619Z,8.80
2023-03-20T01:14:58.092Z,8.70
2023-03-20T01:17:28.139Z,8.70
2023-03-20T01:19:56.806Z,8.70
2023-03-20T01:22:24.571Z,8.70
2023-03-20T01:24:52.108Z,8.70
2023-03-20T01:27:20.577Z,8.70
2023-03-20T01:29:48.475Z,8.70
2023-03-20T01:32:19.621Z,8.70
2023-03-20T01:34:48.069Z,8.60
2023-03-20T01:37:27.067Z,8.50
2023-03-20T01:39:56.405Z,8.50
2023-03-20T01:42:24.994Z,8.50
2023-03-20T01:44:53.082Z,8.50
2023-03-20T01:47:24.547Z,8.50
2023-03-20T01:50:27.717Z,8.40
2023-03-20T01:53:26.438Z,8.30
2023-03-20T01:55:57.273Z,8.40
2023-03-20T01:58:33.232Z,8.40
2023-03-20T02:01:01.170Z,8.40
2023-03-20T02:03:28.822Z,8.30
2023-03-20T02:05:57.768Z,8.40
2023-03-20T02:08:30.301Z,8.40
2023-03-20T02:11:01.256Z,8.50
2023-03-20T02:13:31.561Z,8.40
2023-03-20T02:16:04.220Z,8.40
2023-03-20T02:18:32.841Z,8.50
2023-03-20T02:21:38.737Z,8.50
2023-03-20T02:24:31.161Z,8.50
2023-03-20T02:27:35.471Z,8.50
2023-03-20T02:30:21.835Z,8.60
2023-03-20T02:33:04.140Z,8.60
2023-03-20T02:36:23.615Z,8.70
2023-03-20T02:38:54.606Z,8.70
2023-03-20T02:41:38.857Z,8.70
2023-03-20T02:44:16.579Z,8.70
2023-03-20T02:47:09.085Z,8.60
2023-03-20T02:50:06.419Z,8.40
2023-03-20T02:53:30.562Z,8.20
2023-03-20T02:56:27.545Z,8.10
2023-03-20T02:59:37.982Z,8.00
2023-03-20T03:02:22.537Z,7.90
2023-03-20T03:04:59.176Z,7.80
2023-03-20T03:07:33.179Z,7.80
2023-03-20T03:10:03.680Z,7.70
2023-03-20T03:12:41.524Z,7.70
2023-03-20T03:15:28.011Z,7.70
2023-03-20T03:17:58.449Z,7.70
2023-03-20T03:20:36.210Z,7.70
2023-03-20T03:23:04.825Z,7.70
2023-03-20T03:25:40.273Z,7.70
2023-03-20T03:28:39.077Z,7.60
2023-03-20T03:31:11.831Z,7.60
2023-03-20T03:33:45.064Z,7.60
2023-03-20T03:36:24.756Z,7.60
2023-03-20T03:39:10.736Z,7.60
2023-03-20T03:41:48.335Z,7.60
2023-03-20T03:44:24.102Z,7.50
2023-03-20T03:47:04.740Z,7.50
2023-03-20T03:49:37.976Z,7.50
2023-03-20T03:52:12.620Z,7.60
2023-03-20T03:55:02.873Z,7.60
2023-03-20T03:57:46.301Z,7.60
2023-03-20T04:00:19.655Z,7.50
2023-03-20T04:02:52.912Z,7.50
2023-03-20T04:05:22.100Z,7.50
2023-03-20T04:07:55.612Z,7.50
2023-03-20T04:10:23.247Z,7.50
2023-03-20T04:12:50.998Z,7.50
2023-03-20T04:15:20.513Z,7.40
2023-03-20T04:17:48.224Z,7.40
2023-03-20T04:20:16.559Z,7.30
2023-03-20T04:22:44.177Z,7.30
2023-03-20T04:25:23.214Z,7.30
2023-03-20T04:27:51.186Z,7.30
2023-03-20T04:30:19.302Z,7.20
2023-03-20T04:32:46.936Z,7.20
2023-03-20T04:35:15.054Z,7.20
2023-03-20T04:37:42.689Z,7.20
2023-03-20T04:40:11.340Z,7.20
2023-03-20T04:42:38.931Z,7.20
2023-03-20T04:45:08.102Z,7.20
2023-03-20T04:47:35.816Z,7.10
2023-03-20T04:50:03.393Z,7.10
2023-03-20T04:52:31.055Z,7.10
2023-03-20T04:54:58.610Z,7.10
2023-03-20T04:57:26.334Z,7.00
2023-03-20T04:59:53.908Z,7.00
2023-03-20T05:02:21.480Z,7.10
2023-03-20T05:04:49.013Z,7.00
2023-03-20T05:07:16.583Z,7.00
2023-03-20T05:09:44.200Z,7.00
2023-03-20T05:12:11.905Z,7.10
2023-03-20T05:14:39.446Z,7.10
2023-03-20T05:17:07.025Z,7.30
2023-03-20T05:19:34.612Z,7.40
2023-03-20T05:22:02.234Z,7.40
2023-03-20T05:24:29.780Z,7.50
2023-03-20T05:26:57.795Z,7.50
2023-03-20T05:29:25.381Z,7.40
2023-03-20T05:31:53.055Z,7.40
2023-03-20T05:34:20.780Z,7.30
2023-03-20T05:36:48.343Z,7.30
2023-03-20T05:39:16.036Z,7.30
2023-03-20T05:41:45.811Z,7.30
2023-03-20T05:44:13.548Z,7.30
2023-03-20T05:46:41.276Z,7.40
2023-03-20T05:49:09.198Z,7.50
2023-03-20T05:51:37.380Z,7.50
2023-03-20T05:54:05.300Z,7.70
2023-03-20T05:56:32.916Z,7.70
2023-03-20T05:59:00.719Z,7.70
2023-03-20T06:01:28.335Z,7.60
2023-03-20T06:03:55.878Z,7.60
2023-03-20T06:06:23.526Z,7.70
2023-03-20T06:08:51.369Z,7.70
2023-03-20T06:11:19.003Z,7.70
2023-03-20T06:13:46.562Z,7.80
2023-03-20T06:16:14.244Z,7.80
2023-03-20T06:18:42.020Z,7.90
2023-03-20T06:21:11.982Z,7.90
2023-03-20T06:23:39.761Z,7.90
2023-03-20T06:26:07.500Z,7.90
2023-03-20T06:28:35.270Z,7.90
2023-03-20T06:31:02.924Z,8.00
2023-03-20T06:33:30.545Z,8.00
2023-03-20T06:35:58.174Z,8.00
2023-03-20T06:38:26.058Z,8.00
2023-03-20T06:40:53.600Z,8.00
2023-03-20T06:43:21.630Z,8.00
2023-03-20T06:45:49.317Z,8.10
2023-03-20T06:48:22.142Z,8.10
2023-03-20T06:50:51.007Z,8.20
2023-03-20T06:53:18.738Z,8.20
2023-03-20T06:55:51.886Z,8.20
2023-03-20T06:58:19.765Z,8.30
2023-03-20T07:00:47.355Z,8.30
2023-03-20T07:03:16.227Z,8.40
2023-03-20T07:05:45.079Z,8.40
2023-03-20T07:08:12.685Z,8.60
2023-03-20T07:10:40.303Z,8.50
2023-03-20T07:13:08.009Z,8.60
2023-03-20T07:15:35.742Z,8.50
2023-03-20T07:18:03.485Z,8.60
2023-03-20T07:20:31.167Z,8.60
2023-03-20T07:22:58.912Z,8.60
2023-03-20T07:25:41.442Z,8.60
2023-03-20T07:28:10.165Z,8.60
2023-03-20T07:30:37.725Z,8.50
2023-03-20T07:33:05.391Z,8.50
2023-03-20T07:35:33.164Z,8.50
2023-03-20T07:38:00.795Z,8.50
2023-03-20T07:40:28.499Z,8.60
2023-03-20T07:42:56.298Z,8.80
2023-03-20T07:45:23.949Z,8.70
2023-03-20T07:47:51.639Z,8.80
2023-03-20T07:50:19.428Z,8.80
2023-03-20T07:52:49.334Z,8.80
2023-03-20T07:55:18.660Z,8.90
2023-03-20T07:57:49.471Z,8.90
2023-03-20T08:00:18.635Z,9.10
2023-03-20T08:02:46.543Z,9.10
2023-03-20T08:05:14.197Z,9.20
2023-03-20T08:07:42.001Z,9.30
2023-03-20T08:10:10.679Z,9.40
2023-03-20T08:12:38.251Z,9.60
2023-03-20T08:15:07.065Z,9.60
2023-03-20T08:17:34.665Z,9.70
2023-03-20T08:20:02.403Z,9.70
2023-03-20T08:22:30.237Z,9.70
2023-03-20T08:24:58.235Z,9.70
2023-03-20T08:27:25.910Z,9.50
2023-03-20T08:29:53.535Z,9.40
2023-03-20T08:32:21.174Z,9.40
2023-03-20T08:34:48.908Z,9.30
2023-03-20T08:37:16.805Z,9.30
2023-03-20T08:39:44.676Z,9.20
2023-03-20T08:42:12.319Z,9.20
2023-03-20T08:44:40.058Z,9.20
2023-03-20T08:47:08.189Z,9.20
2023-03-20T08:49:35.877Z,9.20
2023-03-20T08:52:03.988Z,9.20
2023-03-20T08:54:31.618Z,9.30
2023-03-20T08:56:59.201Z,9.20
2023-03-20T08:59:26.813Z,9.20
2023-03-20T09:01:54.370Z,9.30
2023-03-20T09:04:22.047Z,9.30
2023-03-20T09:06:50.781Z,9.30
2023-03-20T09:09:20.416Z,9.30
2023-03-20T09:11:48.126Z,9.40
2023-03-20T09:14:16.293Z,9.40
2023-03-20T09:16:43.891Z,9.40
2023-03-20T09:19:11.568Z,9.40
2023-03-20T09:21:39.167Z,9.40
2023-03-20T09:24:07.388Z,9.50
2023-03-20T09:26:34.994Z,9.50
2023-03-20T09:29:02.740Z,9.60
2023-03-20T09:31:30.547Z,9.70
2023-03-20T09:33:58.191Z,9.70
2023-03-20T09:36:25.812Z,9.80
2023-03-20T09:38:53.504Z,9.80
2023-03-20T09:41:26.792Z,9.80
2023-03-20T09:44:48.413Z,10.00
2023-03-20T09:47:36.292Z,9.90
2023-03-20T09:50:34.060Z,9.90
2023-03-20T09:53:26.796Z,10.00
2023-03-20T09:55:56.705Z,10.00
2023-03-20T09:58:35.125Z,9.90
2023-03-20T10:01:07.105Z,9.90
2023-03-20T10:03:57.275Z,10.00
2023-03-20T10:06:26.182Z,10.10
2023-03-20T10:08:55.812Z,10.20
2023-03-20T10:11:56.878Z,10.30
2023-03-20T10:15:03.879Z,10.60
2023-03-20T10:17:34.428Z,10.80
2023-03-20T10:20:27.422Z,11.00
2023-03-20T10:23:27.904Z,10.90
2023-03-20T10:26:20.284Z,11.20
2023-03-20T10:29:00.496Z,11.30
2023-03-20T10:32:18.580Z,11.60
2023-03-20T10:34:57.652Z,11.70
2023-03-20T10:37:54.684Z,12.00
2023-03-20T10:40:33.370Z,12.20
2023-03-20T10:43:25.167Z,11.90
2023-03-20T10:46:13.602Z,12.20
2023-03-20T10:48:59.199Z,12.40
2023-03-20T10:51:42.859Z,12.70
2023-03-20T10:54:43.043Z,13.20
2023-03-20T10:57:25.555Z,14.10
2023-03-20T10:59:57.310Z,14.10
2023-03-20T11:02:31.749Z,14.40
2023-03-20T11:05:23.554Z,14.20
2023-03-20T11:08:04.884Z,14.20
2023-03-20T11:10:37.287Z,14.00
2023-03-20T11:13:19.657Z,13.70
2023-03-20T11:15:47.161Z,13.90
2023-03-20T11:18:16.631Z,14.10
2023-03-20T11:20:56.988Z,13.70
2023-03-20T11:23:34.819Z,13.70
2023-03-20T11:26:07.363Z,14.10
2023-03-20T11:28:49.074Z,13.70
2023-03-20T11:31:42.166Z,14.00
2023-03-20T11:34:15.778Z,14.20
2023-03-20T11:37:20.285Z,14.10
2023-03-20T11:40:00.687Z,13.80
2023-03-20T11:42:30.976Z,14.10
2023-03-20T11:45:17.315Z,14.30
2023-03-20T11:47:51.788Z,14.80
2023-03-20T11:50:39.757Z,15.00
2023-03-20T11:53:32.946Z,15.20
2023-03-20T11:56:26.925Z,15.20
2023-03-20T11:59:14.887Z,15.50
2023-03-20T12:01:49.630Z,15.60
2023-03-20T12:04:43.255Z,15.30
2023-03-20T12:07:24.632Z,15.50
2023-03-20T12:10:11.985Z,15.90
2023-03-20T12:12:52.197Z,15.90
2023-03-20T12:15:31.672Z,16.00
2023-03-20T12:18:17.038Z,16.90
2023-03-20T12:21:23.836Z,17.40
2023-03-20T12:24:12.172Z,16.60
2023-03-20T12:27:11.840Z,15.50
2023-03-20T12:30:30.171Z,14.60
2023-03-20T12:33:08.517Z,14.40
2023-03-20T12:35:44.948Z,14.20
2023-03-20T12:38:29.045Z,13.70
2023-03-20T12:41:29.721Z,13.10
2023-03-20T12:44:09.287Z,12.70
2023-03-20T12:47:04.011Z,12.50
2023-03-20T12:50:01.060Z,12.50
2023-03-20T12:52:46.818Z,12.60
2023-03-20T12:55:31.988Z,13.10
2023-03-20T12:59:01.190Z,13.80
2023-03-20T13:04:55.471Z,14.70
2023-03-20T13:08:00.026Z,15.00
2023-03-20T13:10:39.983Z,15.00
2023-03-20T13:13:25.872Z,14.80
2023-03-20T13:16:05.740Z,14.80
2023-03-20T13:19:01.415Z,15.30
2023-03-20T13:21:48.141Z,15.50
2023-03-20T13:24:47.020Z,15.30
2023-03-20T13:27:49.335Z,15.10
2023-03-20T13:30:44.857Z,14.40
2023-03-20T13:33:26.756Z,14.20
2023-03-20T13:35:57.897Z,14.20
2023-03-20T13:38:36.456Z,14.00
2023-03-20T13:41:10.969Z,13.80
2023-03-20T13:44:04.294Z,13.80
2023-03-20T13:46:56.003Z,13.80
2023-03-20T13:49:39.797Z,14.00
2023-03-20T13:52:20.898Z,14.40
2023-03-20T13:54:59.120Z,14.80
2023-03-20T13:57:32.808Z,16.70
2023-03-20T14:00:27.072Z,18.40
2023-03-20T14:03:22.390Z,19.10
2023-03-20T14:05:50.012Z,17.90
2023-03-20T14:08:38.739Z,16.60
2023-03-20T14:11:35.739Z,16.30
2023-03-20T14:14:15.595Z,16.80
2023-03-20T14:16:43.723Z,16.10
2023-03-20T14:19:25.386Z,14.90
2023-03-20T14:21:57.606Z,13.70
2023-03-20T14:24:28.434Z,13.00
2023-03-20T14:27:01.669Z,12.40
2023-03-20T14:29:38.936Z,12.10
2023-03-20T14:32:34.440Z,11.90
2023-03-20T14:35:26.825Z,11.70
2023-03-20T14:38:21.387Z,11.60
2023-03-20T14:41:32.719Z,11.70
2023-03-20T14:44:16.631Z,11.60
2023-03-20T14:46:55.512Z,11.60
2023-03-20T14:49:58.026Z,11.50
2023-03-20T14:52:45.224Z,11.30
2023-03-20T14:55:22.812Z,11.30
2023-03-20T14:57:56.873Z,11.20
2023-03-20T15:00:34.107Z,11.00
2023-03-20T15:03:12.257Z,10.90
2023-03-20T15:05:40.776Z,10.90
2023-03-20T15:08:10.841Z,10.90
2023-03-20T15:10:48.385Z,10.80
2023-03-20T15:13:17.305Z,10.80
2023-03-20T15:16:10.129Z,10.80
2023-03-20T15:18:51.898Z,10.80
2023-03-20T15:21:35.500Z,10.90
2023-03-20T15:24:03.806Z,10.90
2023-03-20T15:26:35.669Z,10.90
2023-03-20T15:29:13.228Z,10.90
2023-03-20T15:31:42.005Z,10.90
2023-03-20T15:34:32.613Z,11.00
2023-03-20T15:37:03.111Z,11.00
2023-03-20T15:39:44.676Z,10.90
2023-03-20T15:42:19.224Z,10.80
2023-03-20T15:44:50.378Z,10.70
2023-03-20T15:47:21.667Z,10.60
2023-03-20T15:49:56.960Z,10.60
2023-03-20T15:52:30.184Z,10.60
2023-03-20T15:55:00.397Z,10.60
2023-03-20T15:57:36.479Z,10.60
2023-03-20T16:00:09.343Z,10.70
2023-03-20T16:02:37.910Z,10.70
2023-03-20T16:05:11.033Z,10.60
2023-03-20T16:07:38.655Z,10.60
2023-03-20T16:10:36.521Z,10.50
2023-03-20T16:13:07.336Z,10.40
2023-03-20T16:15:35.184Z,10.40
2023-03-20T16:18:05.821Z,10.40
2023-03-20T16:20:48.431Z,10.30
2023-03-20T16:23:34.402Z,10.40
2023-03-20T16:26:06.501Z,10.40
2023-03-20T16:28:38.296Z,10.30
2023-03-20T16:31:09.670Z,10.30
2023-03-20T16:33:40.095Z,10.20
2023-03-20T16:36:08.453Z,10.10
2023-03-20T16:38:37.667Z,10.00
2023-03-20T16:41:38.538Z,10.00
2023-03-20T16:44:20.139Z,10.00
2023-03-20T16:47:23.652Z,10.00
2023-03-20T16:50:13.399Z,10.00
2023-03-20T16:52:49.171Z,10.00
2023-03-20T16:55:23.375Z,10.00
2023-03-20T16:58:05.348Z,9.90
2023-03-20T17:01:04.010Z,9.90
2023-03-20T17:03:38.248Z,9.80
2023-03-20T17:06:22.191Z,9.80
2023-03-20T17:08:56.403Z,9.70
2023-03-20T17:11:37.175Z,9.70
2023-03-20T17:14:05.529Z,9.80
2023-03-20T17:16:34.465Z,9.80
2023-03-20T17:19:17.585Z,9.80
2023-03-20T17:21:46.594Z,9.80
2023-03-20T17:24:16.147Z,9.80
2023-03-20T17:26:56.185Z,9.80
2023-03-20T17:29:23.798Z,9.80
2023-03-20T17:31:51.419Z,9.80
2023-03-20T17:34:18.979Z,9.80
2023-03-20T17:36:46.694Z,9.80
2023-03-20T17:39:21.823Z,9.80
2023-03-20T17:41:49.690Z,9.80
2023-03-20T17:44:17.234Z,9.70
2023-03-20T17:46:57.271Z,9.80
2023-03-20T17:49:27.887Z,9.70
2023-03-20T17:51:56.444Z,9.70
2023-03-20T17:54:24.001Z,9.70
2023-03-20T17:56:51.719Z,9.70
2023-03-20T17:59:20.248Z,9.60
2023-03-20T18:01:47.873Z,9.60
2023-03-20T18:04:15.701Z,9.60
2023-03-20T18:06:43.234Z,9.60
2023-03-20T18:09:14.893Z,9.70
2023-03-20T18:11:42.496Z,9.70
2023-03-20T18:14:12.563Z,9.70
2023-03-20T18:16:40.140Z,9.70
2023-03-20T18:19:15.179Z,9.60
2023-03-20T18:21:42.744Z,9.60
2023-03-20T18:24:10.376Z,9.60
2023-03-20T18:26:38.001Z,9.60
2023-03-20T18:29:06.090Z,9.60
2023-03-20T18:31:33.625Z,9.60
2023-03-20T18:34:01.201Z,9.60
2023-03-20T18:36:28.813Z,9.70
2023-03-20T18:38:56.405Z,9.60
2023-03-20T18:41:24.019Z,9.60
2023-03-20T18:43:51.920Z,9.50
2023-03-20T18:46:22.444Z,9.50
2023-03-20T18:48:52.769Z,9.50
2023-03-20T18:51:21.441Z,9.40
2023-03-20T18:53:48.979Z,9.30
2023-03-20T18:56:18.853Z,9.30
2023-03-20T18:58:48.001Z,9.30
2023-03-20T19:01:16.681Z,9.20
2023-03-20T19:03:46.194Z,9.20
2023-03-20T19:06:19.276Z,9.20
2023-03-20T19:08:48.124Z,9.20
2023-03-20T19:11:19.646Z,9.10
2023-03-20T19:13:52.679Z,9.20
2023-03-20T19:16:30.966Z,9.10
2023-03-20T19:19:01.904Z,9.10
2023-03-20T19:21:34.869Z,9.10
2023-03-20T19:24:06.221Z,9.10
2023-03-20T19:26:37.196Z,9.20
2023-03-20T19:29:10.826Z,9.20
2023-03-20T19:31:38.457Z,9.20
2023-03-20T19:34:06.896Z,9.30
2023-03-20T19:36:37.839Z,9.20
2023-03-20T19:39:08.987Z,9.20
2023-03-20T19:41:37.253Z,9.20
2023-03-20T19:44:06.477Z,9.30
2023-03-20T19:46:42.495Z,9.20
2023-03-20T19:49:28.164Z,9.10
2023-03-20T19:51:58.488Z,9.10
2023-03-20T19:54:26.174Z,9.10
2023-03-20T19:56:53.708Z,9.10
2023-03-20T19:59:21.312Z,9.10
2023-03-20T20:01:49.000Z,9.00
2023-03-20T20:04:16.748Z,9.00
2023-03-20T20:06:47.162Z,9.00
2023-03-20T20:09:15.596Z,8.90
2023-03-20T20:11:44.194Z,8.90
2023-03-20T20:14:14.949Z,8.90
2023-03-20T20:16:43.785Z,8.90
2023-03-20T20:19:12.092Z,8.90
2023-03-20T20:24:28.577Z,8.80
2023-03-20T20:27:15.281Z,8.80
2023-03-20T20:29:50.982Z,8.70
2023-03-20T20:32:22.299Z,8.80
2023-03-20T20:38:27.108Z,8.80
2023-03-20T20:40:31.261Z,8.70
2023-03-20T20:43:02.882Z,8.70
2023-03-20T20:45:32.029Z,8.70
2023-03-20T20:48:01.599Z,8.60
2023-03-20T20:50:31.285Z,8.70
2023-03-20T20:53:00.019Z,8.60
2023-03-20T20:55:27.708Z,8.60
2023-03-20T20:57:56.276Z,8.60
2023-03-20T21:00:47.556Z,8.40
2023-03-20T21:03:14.896Z,8.40
2023-03-20T21:05:43.579Z,8.40
2023-03-20T21:08:13.526Z,8.30
2023-03-20T21:10:41.181Z,8.30
2023-03-20T21:13:08.841Z,8.30
2023-03-20T21:15:37.057Z,8.30
2023-03-20T21:18:04.833Z,8.30
2023-03-20T21:20:33.774Z,8.20
2023-03-20T21:23:01.543Z,8.30
2023-03-20T21:25:40.204Z,8.20
2023-03-20T21:28:09.922Z,8.20
2023-03-20T21:30:54.567Z,8.20
2023-03-20T21:33:34.399Z,8.20
2023-03-20T21:36:03.368Z,8.20
2023-03-20T21:39:06.005Z,8.20
2023-03-20T21:41:19.028Z,8.20
2023-03-20T21:43:47.908Z,8.20
2023-03-20T21:46:54.315Z,8.10
2023-03-20T21:49:52.856Z,8.10
2023-03-20T22:03:14.114Z,8.20
2023-03-20T22:06:29.640Z,8.20
2023-03-20T22:26:25.373Z,8.20
2023-03-20T22:37:27.597Z,8.00
2023-03-20T22:42:47.793Z,8.10
2023-03-20T22:45:03.208Z,8.00
2023-03-20T22:47:31.769Z,8.10
2023-03-20T22:49:59.505Z,8.00
2023-03-20T22:52:41.632Z,8.00
2023-03-20T22:55:13.413Z,8.00
2023-03-20T22:57:47.606Z,7.90
2023-03-20T23:00:20.680Z,7.90
2023-03-20T23:02:48.313Z,7.90
2023-03-20T23:05:16.060Z,7.90
2023-03-20T23:07:44.601Z,7.90
2023-03-20T23:10:13.525Z,7.90
2023-03-20T23:12:43.910Z,7.90
2023-03-20T23:15:12.046Z,7.90
2023-03-20T23:17:39.684Z,7.90
2023-03-20T23:20:14.369Z,7.80
2023-03-20T23:22:43.569Z,7.80
2023-03-20T23:25:18.698Z,7.80
2023-03-20T23:27:51.616Z,7.80
2023-03-20T23:30:20.686Z,7.80
2023-03-20T23:32:48.388Z,7.80
2023-03-20T23:35:15.989Z,7.80
2023-03-20T23:37:43.396Z,7.70
2023-03-20T23:40:11.778Z,7.70
2023-03-20T23:42:39.260Z,7.70
2023-03-20T23:45:19.568Z,7.70
2023-03-20T23:47:49.669Z,7.80
2023-03-20T23:50:31.854Z,7.70
2023-03-20T23:53:17.512Z,7.70
2023-03-20T23:55:50.906Z,7.70
2023-03-20T23:58:20.116Z,7.70
